This is the latest recevied weather packets stored in our database for station/object IK4PKL-13. If no packets are shown the sender has not sent any weather packets the latest 10 day(s).
| Time | Temp. | Humidity | Pressure | Rain* | Wind** | Luminosity | Snow |
|---|---|---|---|---|---|---|---|
| 1777576529 | 13.89° C | 49% | 1027.6 hPa | 0 mm | - | 0 W/m² | - |
| 1777575921 | 14.44° C | 47% | 1027.6 hPa | 0 mm | - | 0 W/m² | - |
| 1777565747 | 15° C | 44% | 1026.8 hPa | 0 mm | - | 150 W/m² | - |
| 1777562140 | 16.11° C | 42% | 1026.8 hPa | 0 mm | - | 319 W/m² | - |
| 1777557937 | 15° C | 44% | 1027.2 hPa | 0 mm | - | 66 W/m² | - |
| 1777553138 | 15° C | 48% | 1027.5 hPa | 0 mm | - | 622 W/m² | - |
| 1777547121 | 14.44° C | 52% | 1027.9 hPa | 0 mm | - | 681 W/m² | - |
| 1777545347 | 15° C | 49% | 1027.9 hPa | 0 mm | - | 673 W/m² | - |
| 1777536949 | 15° C | 53% | 1027.3 hPa | 0 mm | - | 79 W/m² | - |
| 1777536321 | 14.44° C | 54% | 1027.1 hPa | 0 mm | - | 74 W/m² | - |
| 1777535137 | 15° C | 53% | 1026.9 hPa | 0 mm | - | 405 W/m² | - |
| 1777534530 | 15° C | 54% | 1026.9 hPa | 0 mm | - | 382 W/m² | - |
| 1777532130 | 15° C | 55% | 1026.6 hPa | 0 mm | - | 240 W/m² | - |
| 1777526742 | 14.44° C | 64% | 1025.6 hPa | 0 mm | - | 75 W/m² | - |
| 1777526145 | 13.89° C | 66% | 1025.4 hPa | 0 mm | - | 61 W/m² | - |
| 1777524949 | 13.89° C | 69% | 1025.3 hPa | 0 mm | - | 32 W/m² | - |
| 1777523746 | 13.89° C | 71% | 1025.1 hPa | 0 mm | - | 14 W/m² | - |
| 1777514145 | 13.33° C | 86% | 1024.3 hPa | 0.76 mm | - | 0 W/m² | - |
| 1777512929 | 14.44° C | 80% | 1024 hPa | 0.25 mm | - | 0 W/m² | - |
| 1777511745 | 15° C | 78% | 1024 hPa | 0 mm | - | 0 W/m² | - |
| 1777509937 | 15° C | 77% | 1023.7 hPa | 0 mm | - | 0 W/m² | - |
| 1777506946 | 16.11° C | 75% | 1023.1 hPa | 0 mm | - | 0 W/m² | - |
| 1777502722 | 16.67° C | 74% | 1022.3 hPa | 0 mm | - | 0 W/m² | - |
| 1777492529 | 18.33° C | 78% | 1020.5 hPa | 0 mm | - | 0 W/m² | - |
| 1777490739 | 18.33° C | 83% | 1020.3 hPa | 0 mm | - | 0 W/m² | - |
* Rain latest hour (hover to see other rain measurements)
** Current wind speed in m/s (hover to see current wind gust speed)